sensor_id;sensor_type;location;lat;lon;timestamp;P1;durP1;ratioP1;P2;durP2;ratioP2
68449;SDS011;67758;39.572;2.652;2024-01-10T00:01:55;6.30;;;1.03;;
68449;SDS011;67758;39.572;2.652;2024-01-10T00:04:20;5.50;;;0.67;;
68449;SDS011;67758;39.572;2.652;2024-01-10T00:06:46;4.75;;;0.60;;
68449;SDS011;67758;39.572;2.652;2024-01-10T00:09:12;3.37;;;0.50;;
68449;SDS011;67758;39.572;2.652;2024-01-10T00:11:37;4.80;;;0.50;;
68449;SDS011;67758;39.572;2.652;2024-01-10T00:14:03;4.27;;;0.57;;
68449;SDS011;67758;39.572;2.652;2024-01-10T00:16:29;5.72;;;0.70;;
68449;SDS011;67758;39.572;2.652;2024-01-10T00:18:54;3.97;;;0.60;;
68449;SDS011;67758;39.572;2.652;2024-01-10T00:21:20;4.75;;;0.73;;
68449;SDS011;67758;39.572;2.652;2024-01-10T00:23:46;5.53;;;0.90;;
68449;SDS011;67758;39.572;2.652;2024-01-10T00:26:11;5.28;;;0.90;;
68449;SDS011;67758;39.572;2.652;2024-01-10T00:28:37;4.93;;;0.60;;
68449;SDS011;67758;39.572;2.652;2024-01-10T00:31:03;5.80;;;0.87;;
68449;SDS011;67758;39.572;2.652;2024-01-10T00:33:29;4.35;;;1.10;;
68449;SDS011;67758;39.572;2.652;2024-01-10T00:35:54;4.97;;;0.70;;
68449;SDS011;67758;39.572;2.652;2024-01-10T00:38:20;7.13;;;1.03;;
68449;SDS011;67758;39.572;2.652;2024-01-10T00:40:46;4.57;;;0.80;;
68449;SDS011;67758;39.572;2.652;2024-01-10T00:43:11;7.83;;;0.90;;
68449;SDS011;67758;39.572;2.652;2024-01-10T00:45:37;5.23;;;0.70;;
68449;SDS011;67758;39.572;2.652;2024-01-10T00:48:03;3.53;;;0.60;;
68449;SDS011;67758;39.572;2.652;2024-01-10T00:50:29;4.55;;;0.68;;
68449;SDS011;67758;39.572;2.652;2024-01-10T00:52:54;4.47;;;0.60;;
68449;SDS011;67758;39.572;2.652;2024-01-10T00:55:20;6.00;;;0.50;;
68449;SDS011;67758;39.572;2.652;2024-01-10T00:57:46;3.97;;;0.50;;
68449;SDS011;67758;39.572;2.652;2024-01-10T01:00:11;3.47;;;0.40;;
68449;SDS011;67758;39.572;2.652;2024-01-10T01:02:38;5.80;;;0.60;;
68449;SDS011;67758;39.572;2.652;2024-01-10T01:05:06;4.80;;;0.60;;
68449;SDS011;67758;39.572;2.652;2024-01-10T01:07:32;3.17;;;0.38;;
68449;SDS011;67758;39.572;2.652;2024-01-10T01:09:58;4.05;;;0.57;;
68449;SDS011;67758;39.572;2.652;2024-01-10T01:12:24;3.90;;;0.60;;
68449;SDS011;67758;39.572;2.652;2024-01-10T01:14:50;4.00;;;0.40;;
68449;SDS011;67758;39.572;2.652;2024-01-10T01:17:16;3.67;;;0.60;;
68449;SDS011;67758;39.572;2.652;2024-01-10T01:19:42;4.40;;;0.60;;
68449;SDS011;67758;39.572;2.652;2024-01-10T01:22:07;3.40;;;0.55;;
68449;SDS011;67758;39.572;2.652;2024-01-10T01:24:33;5.30;;;0.70;;
68449;SDS011;67758;39.572;2.652;2024-01-10T01:26:59;4.22;;;0.40;;
68449;SDS011;67758;39.572;2.652;2024-01-10T01:29:25;5.07;;;0.50;;
68449;SDS011;67758;39.572;2.652;2024-01-10T01:31:51;2.60;;;0.40;;
68449;SDS011;67758;39.572;2.652;2024-01-10T01:34:17;3.00;;;0.30;;
68449;SDS011;67758;39.572;2.652;2024-01-10T01:36:43;4.73;;;0.40;;
68449;SDS011;67758;39.572;2.652;2024-01-10T01:39:08;3.17;;;0.50;;
68449;SDS011;67758;39.572;2.652;2024-01-10T01:41:34;3.70;;;0.50;;
68449;SDS011;67758;39.572;2.652;2024-01-10T01:43:59;2.57;;;0.30;;
68449;SDS011;67758;39.572;2.652;2024-01-10T01:46:27;4.13;;;0.30;;
68449;SDS011;67758;39.572;2.652;2024-01-10T01:48:53;5.45;;;0.47;;
68449;SDS011;67758;39.572;2.652;2024-01-10T01:51:20;2.60;;;0.40;;
68449;SDS011;67758;39.572;2.652;2024-01-10T01:53:48;4.22;;;0.30;;
68449;SDS011;67758;39.572;2.652;2024-01-10T01:56:15;3.75;;;0.75;;
68449;SDS011;67758;39.572;2.652;2024-01-10T01:58:42;3.88;;;0.38;;
68449;SDS011;67758;39.572;2.652;2024-01-10T02:01:08;3.45;;;0.40;;
68449;SDS011;67758;39.572;2.652;2024-01-10T02:03:36;2.23;;;0.30;;
68449;SDS011;67758;39.572;2.652;2024-01-10T02:06:02;4.32;;;0.50;;
68449;SDS011;67758;39.572;2.652;2024-01-10T02:08:29;5.30;;;0.55;;
68449;SDS011;67758;39.572;2.652;2024-01-10T02:10:56;3.30;;;0.43;;
68449;SDS011;67758;39.572;2.652;2024-01-10T02:13:22;3.20;;;0.50;;
68449;SDS011;67758;39.572;2.652;2024-01-10T02:15:47;4.60;;;0.82;;
68449;SDS011;67758;39.572;2.652;2024-01-10T02:18:13;3.10;;;0.30;;
68449;SDS011;67758;39.572;2.652;2024-01-10T02:20:39;2.90;;;0.32;;
68449;SDS011;67758;39.572;2.652;2024-01-10T02:23:11;2.92;;;0.28;;
68449;SDS011;67758;39.572;2.652;2024-01-10T02:25:37;4.47;;;0.37;;
68449;SDS011;67758;39.572;2.652;2024-01-10T02:28:04;3.40;;;0.30;;
68449;SDS011;67758;39.572;2.652;2024-01-10T02:30:38;2.60;;;0.25;;
68449;SDS011;67758;39.572;2.652;2024-01-10T02:33:04;4.87;;;0.30;;
68449;SDS011;67758;39.572;2.652;2024-01-10T02:35:29;3.78;;;0.22;;
68449;SDS011;67758;39.572;2.652;2024-01-10T02:37:58;3.88;;;0.52;;
68449;SDS011;67758;39.572;2.652;2024-01-10T02:40:27;4.17;;;0.40;;
68449;SDS011;67758;39.572;2.652;2024-01-10T02:42:52;6.00;;;0.50;;
68449;SDS011;67758;39.572;2.652;2024-01-10T02:45:18;2.40;;;0.27;;
68449;SDS011;67758;39.572;2.652;2024-01-10T02:47:44;3.42;;;0.50;;
68449;SDS011;67758;39.572;2.652;2024-01-10T02:50:10;5.53;;;0.28;;
68449;SDS011;67758;39.572;2.652;2024-01-10T02:52:36;2.77;;;0.30;;
68449;SDS011;67758;39.572;2.652;2024-01-10T02:55:04;6.20;;;0.50;;
68449;SDS011;67758;39.572;2.652;2024-01-10T02:57:30;4.38;;;0.50;;
68449;SDS011;67758;39.572;2.652;2024-01-10T02:59:55;4.80;;;0.30;;
68449;SDS011;67758;39.572;2.652;2024-01-10T03:02:23;4.90;;;0.50;;
68449;SDS011;67758;39.572;2.652;2024-01-10T03:04:51;3.67;;;0.40;;
68449;SDS011;67758;39.572;2.652;2024-01-10T03:07:19;5.95;;;0.57;;
68449;SDS011;67758;39.572;2.652;2024-01-10T03:09:45;3.50;;;0.20;;
68449;SDS011;67758;39.572;2.652;2024-01-10T03:12:13;3.05;;;0.40;;
68449;SDS011;67758;39.572;2.652;2024-01-10T03:14:39;3.35;;;0.40;;
68449;SDS011;67758;39.572;2.652;2024-01-10T03:17:04;2.50;;;0.30;;
68449;SDS011;67758;39.572;2.652;2024-01-10T03:19:30;4.50;;;0.50;;
68449;SDS011;67758;39.572;2.652;2024-01-10T03:21:55;5.35;;;0.43;;
68449;SDS011;67758;39.572;2.652;2024-01-10T03:24:21;5.03;;;0.33;;
68449;SDS011;67758;39.572;2.652;2024-01-10T03:26:49;4.28;;;0.50;;
68449;SDS011;67758;39.572;2.652;2024-01-10T03:29:16;4.00;;;0.30;;
68449;SDS011;67758;39.572;2.652;2024-01-10T03:31:44;3.93;;;0.40;;
68449;SDS011;67758;39.572;2.652;2024-01-10T03:34:10;3.92;;;0.40;;
68449;SDS011;67758;39.572;2.652;2024-01-10T03:36:35;5.60;;;0.40;;
68449;SDS011;67758;39.572;2.652;2024-01-10T03:39:01;3.43;;;0.70;;
68449;SDS011;67758;39.572;2.652;2024-01-10T03:41:27;3.27;;;0.87;;
68449;SDS011;67758;39.572;2.652;2024-01-10T03:43:52;2.10;;;0.30;;
68449;SDS011;67758;39.572;2.652;2024-01-10T03:46:19;3.50;;;0.43;;
68449;SDS011;67758;39.572;2.652;2024-01-10T03:48:45;4.68;;;0.40;;
68449;SDS011;67758;39.572;2.652;2024-01-10T03:51:17;3.70;;;0.40;;
68449;SDS011;67758;39.572;2.652;2024-01-10T03:53:44;2.40;;;0.40;;
68449;SDS011;67758;39.572;2.652;2024-01-10T03:56:10;6.78;;;0.50;;
68449;SDS011;67758;39.572;2.652;2024-01-10T03:58:37;5.90;;;0.50;;
68449;SDS011;67758;39.572;2.652;2024-01-10T04:01:06;4.37;;;0.37;;
68449;SDS011;67758;39.572;2.652;2024-01-10T04:03:32;5.22;;;0.68;;
68449;SDS011;67758;39.572;2.652;2024-01-10T04:05:58;4.90;;;0.35;;
68449;SDS011;67758;39.572;2.652;2024-01-10T04:08:24;4.67;;;0.40;;
68449;SDS011;67758;39.572;2.652;2024-01-10T04:10:49;4.50;;;0.47;;
68449;SDS011;67758;39.572;2.652;2024-01-10T04:13:15;6.93;;;0.77;;
68449;SDS011;67758;39.572;2.652;2024-01-10T04:15:41;3.00;;;0.30;;
68449;SDS011;67758;39.572;2.652;2024-01-10T04:18:06;4.53;;;0.40;;
68449;SDS011;67758;39.572;2.652;2024-01-10T04:20:32;4.05;;;0.45;;
68449;SDS011;67758;39.572;2.652;2024-01-10T04:22:58;5.20;;;0.50;;
68449;SDS011;67758;39.572;2.652;2024-01-10T04:25:23;3.17;;;0.40;;
68449;SDS011;67758;39.572;2.652;2024-01-10T04:27:49;2.53;;;0.40;;
68449;SDS011;67758;39.572;2.652;2024-01-10T04:30:18;4.25;;;0.40;;
68449;SDS011;67758;39.572;2.652;2024-01-10T04:32:44;3.72;;;0.30;;
68449;SDS011;67758;39.572;2.652;2024-01-10T04:35:09;6.53;;;0.50;;
68449;SDS011;67758;39.572;2.652;2024-01-10T04:37:35;5.13;;;0.35;;
68449;SDS011;67758;39.572;2.652;2024-01-10T04:40:01;3.47;;;0.30;;
68449;SDS011;67758;39.572;2.652;2024-01-10T04:42:26;3.40;;;0.40;;
68449;SDS011;67758;39.572;2.652;2024-01-10T04:44:52;3.00;;;0.43;;
68449;SDS011;67758;39.572;2.652;2024-01-10T04:47:18;3.93;;;0.50;;
68449;SDS011;67758;39.572;2.652;2024-01-10T04:49:43;4.72;;;0.40;;
68449;SDS011;67758;39.572;2.652;2024-01-10T04:52:09;2.95;;;0.38;;
68449;SDS011;67758;39.572;2.652;2024-01-10T04:54:34;3.07;;;0.40;;
68449;SDS011;67758;39.572;2.652;2024-01-10T04:57:00;1.90;;;0.40;;
68449;SDS011;67758;39.572;2.652;2024-01-10T04:59:26;2.92;;;0.40;;
68449;SDS011;67758;39.572;2.652;2024-01-10T05:01:51;3.80;;;0.60;;
68449;SDS011;67758;39.572;2.652;2024-01-10T05:04:17;3.85;;;0.40;;
68449;SDS011;67758;39.572;2.652;2024-01-10T05:06:42;8.47;;;0.50;;
68449;SDS011;67758;39.572;2.652;2024-01-10T05:09:08;4.47;;;0.50;;
68449;SDS011;67758;39.572;2.652;2024-01-10T05:11:34;5.15;;;0.55;;
68449;SDS011;67758;39.572;2.652;2024-01-10T05:14:01;5.97;;;0.55;;
68449;SDS011;67758;39.572;2.652;2024-01-10T05:16:27;3.25;;;0.47;;
68449;SDS011;67758;39.572;2.652;2024-01-10T05:18:53;4.83;;;0.60;;
68449;SDS011;67758;39.572;2.652;2024-01-10T05:21:19;4.55;;;0.80;;
68449;SDS011;67758;39.572;2.652;2024-01-10T05:23:45;5.83;;;0.60;;
68449;SDS011;67758;39.572;2.652;2024-01-10T05:26:10;3.55;;;0.50;;
68449;SDS011;67758;39.572;2.652;2024-01-10T05:28:36;5.80;;;0.50;;
68449;SDS011;67758;39.572;2.652;2024-01-10T05:31:02;5.33;;;0.50;;
68449;SDS011;67758;39.572;2.652;2024-01-10T05:33:27;3.75;;;0.40;;
68449;SDS011;67758;39.572;2.652;2024-01-10T05:35:53;5.63;;;0.40;;
68449;SDS011;67758;39.572;2.652;2024-01-10T05:38:19;5.65;;;0.40;;
68449;SDS011;67758;39.572;2.652;2024-01-10T05:40:44;4.83;;;0.40;;
68449;SDS011;67758;39.572;2.652;2024-01-10T05:43:10;5.60;;;0.57;;
68449;SDS011;67758;39.572;2.652;2024-01-10T05:45:35;4.20;;;0.50;;
68449;SDS011;67758;39.572;2.652;2024-01-10T05:48:01;5.00;;;0.55;;
68449;SDS011;67758;39.572;2.652;2024-01-10T05:50:28;3.88;;;0.60;;
68449;SDS011;67758;39.572;2.652;2024-01-10T05:52:53;6.00;;;0.70;;
68449;SDS011;67758;39.572;2.652;2024-01-10T05:55:19;4.87;;;0.60;;
68449;SDS011;67758;39.572;2.652;2024-01-10T05:57:44;4.10;;;0.50;;
68449;SDS011;67758;39.572;2.652;2024-01-10T06:00:10;3.60;;;0.60;;
68449;SDS011;67758;39.572;2.652;2024-01-10T06:02:39;5.53;;;0.52;;
68449;SDS011;67758;39.572;2.652;2024-01-10T06:05:07;5.22;;;0.50;;
68449;SDS011;67758;39.572;2.652;2024-01-10T06:07:37;4.53;;;0.63;;
68449;SDS011;67758;39.572;2.652;2024-01-10T06:10:03;6.57;;;1.10;;
68449;SDS011;67758;39.572;2.652;2024-01-10T06:12:29;2.97;;;0.47;;
68449;SDS011;67758;39.572;2.652;2024-01-10T06:14:55;6.15;;;0.60;;
68449;SDS011;67758;39.572;2.652;2024-01-10T06:17:21;4.30;;;0.67;;
68449;SDS011;67758;39.572;2.652;2024-01-10T06:19:47;5.85;;;0.65;;
68449;SDS011;67758;39.572;2.652;2024-01-10T06:22:13;5.25;;;1.35;;
68449;SDS011;67758;39.572;2.652;2024-01-10T06:24:38;5.47;;;0.70;;
68449;SDS011;67758;39.572;2.652;2024-01-10T06:27:06;4.20;;;0.73;;
68449;SDS011;67758;39.572;2.652;2024-01-10T06:29:32;6.57;;;0.60;;
68449;SDS011;67758;39.572;2.652;2024-01-10T06:31:58;3.45;;;0.57;;
68449;SDS011;67758;39.572;2.652;2024-01-10T06:34:26;4.30;;;0.75;;
68449;SDS011;67758;39.572;2.652;2024-01-10T06:36:52;5.77;;;0.70;;
68449;SDS011;67758;39.572;2.652;2024-01-10T06:39:17;3.70;;;0.70;;
68449;SDS011;67758;39.572;2.652;2024-01-10T06:41:46;5.03;;;0.50;;
68449;SDS011;67758;39.572;2.652;2024-01-10T06:44:12;3.60;;;0.40;;
68449;SDS011;67758;39.572;2.652;2024-01-10T06:46:38;5.53;;;0.50;;
68449;SDS011;67758;39.572;2.652;2024-01-10T06:49:04;4.20;;;0.53;;
68449;SDS011;67758;39.572;2.652;2024-01-10T06:51:29;7.10;;;1.05;;
68449;SDS011;67758;39.572;2.652;2024-01-10T06:53:55;7.60;;;0.83;;
68449;SDS011;67758;39.572;2.652;2024-01-10T06:56:27;5.35;;;0.70;;
68449;SDS011;67758;39.572;2.652;2024-01-10T06:58:53;7.18;;;0.80;;
68449;SDS011;67758;39.572;2.652;2024-01-10T07:01:19;6.83;;;0.60;;
68449;SDS011;67758;39.572;2.652;2024-01-10T07:03:47;6.20;;;0.80;;
68449;SDS011;67758;39.572;2.652;2024-01-10T07:06:12;6.25;;;0.90;;
68449;SDS011;67758;39.572;2.652;2024-01-10T07:08:41;7.28;;;1.00;;
68449;SDS011;67758;39.572;2.652;2024-01-10T07:11:08;4.47;;;0.70;;
68449;SDS011;67758;39.572;2.652;2024-01-10T07:13:34;4.72;;;0.70;;
68449;SDS011;67758;39.572;2.652;2024-01-10T07:15:59;4.95;;;0.80;;
68449;SDS011;67758;39.572;2.652;2024-01-10T07:18:30;8.00;;;0.70;;
68449;SDS011;67758;39.572;2.652;2024-01-10T07:20:56;3.90;;;0.90;;
68449;SDS011;67758;39.572;2.652;2024-01-10T07:23:21;7.82;;;1.23;;
68449;SDS011;67758;39.572;2.652;2024-01-10T07:25:50;11.73;;;1.85;;
68449;SDS011;67758;39.572;2.652;2024-01-10T07:28:16;6.23;;;1.20;;
68449;SDS011;67758;39.572;2.652;2024-01-10T07:30:42;8.82;;;1.30;;
68449;SDS011;67758;39.572;2.652;2024-01-10T07:33:09;4.00;;;0.70;;
68449;SDS011;67758;39.572;2.652;2024-01-10T07:35:35;9.20;;;1.30;;
68449;SDS011;67758;39.572;2.652;2024-01-10T07:38:03;5.55;;;1.02;;
68449;SDS011;67758;39.572;2.652;2024-01-10T07:40:29;11.20;;;1.37;;
68449;SDS011;67758;39.572;2.652;2024-01-10T07:42:54;6.75;;;1.35;;
68449;SDS011;67758;39.572;2.652;2024-01-10T07:45:20;7.13;;;1.10;;
68449;SDS011;67758;39.572;2.652;2024-01-10T07:47:46;5.50;;;0.88;;
68449;SDS011;67758;39.572;2.652;2024-01-10T07:50:12;10.80;;;1.40;;
68449;SDS011;67758;39.572;2.652;2024-01-10T07:52:39;8.77;;;1.77;;
68449;SDS011;67758;39.572;2.652;2024-01-10T07:55:05;9.85;;;1.80;;
68449;SDS011;67758;39.572;2.652;2024-01-10T07:57:32;7.00;;;1.30;;
68449;SDS011;67758;39.572;2.652;2024-01-10T08:00:07;9.53;;;1.97;;
68449;SDS011;67758;39.572;2.652;2024-01-10T08:02:36;10.38;;;1.90;;
68449;SDS011;67758;39.572;2.652;2024-01-10T08:05:03;5.93;;;1.80;;
68449;SDS011;67758;39.572;2.652;2024-01-10T08:07:35;9.85;;;1.73;;
68449;SDS011;67758;39.572;2.652;2024-01-10T08:10:04;6.53;;;1.50;;
68449;SDS011;67758;39.572;2.652;2024-01-10T08:12:30;9.77;;;1.77;;
68449;SDS011;67758;39.572;2.652;2024-01-10T08:14:56;8.13;;;2.33;;
68449;SDS011;67758;39.572;2.652;2024-01-10T08:17:22;5.83;;;1.67;;
68449;SDS011;67758;39.572;2.652;2024-01-10T08:19:48;8.77;;;1.65;;
68449;SDS011;67758;39.572;2.652;2024-01-10T08:22:14;8.98;;;1.50;;
68449;SDS011;67758;39.572;2.652;2024-01-10T08:24:40;9.45;;;1.77;;
68449;SDS011;67758;39.572;2.652;2024-01-10T08:27:05;8.17;;;1.40;;
68449;SDS011;67758;39.572;2.652;2024-01-10T08:29:31;8.93;;;1.67;;
68449;SDS011;67758;39.572;2.652;2024-01-10T08:31:57;7.07;;;1.77;;
68449;SDS011;67758;39.572;2.652;2024-01-10T08:34:23;7.43;;;1.50;;
68449;SDS011;67758;39.572;2.652;2024-01-10T08:36:49;9.45;;;1.38;;
68449;SDS011;67758;39.572;2.652;2024-01-10T08:39:18;9.43;;;1.58;;
68449;SDS011;67758;39.572;2.652;2024-01-10T08:41:44;9.88;;;1.90;;
68449;SDS011;67758;39.572;2.652;2024-01-10T08:44:10;8.03;;;1.90;;
68449;SDS011;67758;39.572;2.652;2024-01-10T08:46:36;9.05;;;1.90;;
68449;SDS011;67758;39.572;2.652;2024-01-10T08:49:01;11.10;;;2.25;;
68449;SDS011;67758;39.572;2.652;2024-01-10T08:51:27;8.02;;;1.40;;
68449;SDS011;67758;39.572;2.652;2024-01-10T08:53:53;8.80;;;2.03;;
68449;SDS011;67758;39.572;2.652;2024-01-10T08:56:19;5.33;;;1.50;;
68449;SDS011;67758;39.572;2.652;2024-01-10T08:58:45;10.38;;;1.92;;
68449;SDS011;67758;39.572;2.652;2024-01-10T09:01:11;5.97;;;1.15;;
68449;SDS011;67758;39.572;2.652;2024-01-10T09:03:36;5.53;;;1.03;;
68449;SDS011;67758;39.572;2.652;2024-01-10T09:06:03;5.47;;;1.10;;
68449;SDS011;67758;39.572;2.652;2024-01-10T09:08:29;5.70;;;1.00;;
68449;SDS011;67758;39.572;2.652;2024-01-10T09:10:55;5.30;;;1.40;;
68449;SDS011;67758;39.572;2.652;2024-01-10T09:13:21;7.93;;;1.50;;
68449;SDS011;67758;39.572;2.652;2024-01-10T09:15:46;6.20;;;1.40;;
68449;SDS011;67758;39.572;2.652;2024-01-10T09:18:12;6.57;;;1.47;;
68449;SDS011;67758;39.572;2.652;2024-01-10T09:20:37;8.03;;;1.53;;
68449;SDS011;67758;39.572;2.652;2024-01-10T09:23:03;6.53;;;1.35;;
68449;SDS011;67758;39.572;2.652;2024-01-10T09:25:29;8.67;;;1.37;;
68449;SDS011;67758;39.572;2.652;2024-01-10T09:27:55;5.53;;;0.70;;
68449;SDS011;67758;39.572;2.652;2024-01-10T09:30:20;8.65;;;1.48;;
68449;SDS011;67758;39.572;2.652;2024-01-10T09:32:46;7.32;;;1.17;;
68449;SDS011;67758;39.572;2.652;2024-01-10T09:35:12;9.03;;;1.93;;
68449;SDS011;67758;39.572;2.652;2024-01-10T09:37:38;13.63;;;4.80;;
68449;SDS011;67758;39.572;2.652;2024-01-10T09:40:04;21.13;;;6.53;;
68449;SDS011;67758;39.572;2.652;2024-01-10T09:42:34;18.58;;;5.10;;
68449;SDS011;67758;39.572;2.652;2024-01-10T09:45:03;15.10;;;4.07;;
68449;SDS011;67758;39.572;2.652;2024-01-10T09:47:30;16.15;;;3.85;;
68449;SDS011;67758;39.572;2.652;2024-01-10T09:49:57;13.25;;;3.20;;
68449;SDS011;67758;39.572;2.652;2024-01-10T09:52:26;12.47;;;3.97;;
68449;SDS011;67758;39.572;2.652;2024-01-10T09:54:53;13.20;;;3.63;;
68449;SDS011;67758;39.572;2.652;2024-01-10T09:57:22;11.60;;;3.33;;
68449;SDS011;67758;39.572;2.652;2024-01-10T09:59:51;13.63;;;3.42;;
68449;SDS011;67758;39.572;2.652;2024-01-10T10:02:17;13.25;;;3.40;;
68449;SDS011;67758;39.572;2.652;2024-01-10T10:05:26;14.85;;;3.03;;
68449;SDS011;67758;39.572;2.652;2024-01-10T10:10:12;6.22;;;1.42;;
68449;SDS011;67758;39.572;2.652;2024-01-10T10:12:43;7.13;;;1.65;;
68449;SDS011;67758;39.572;2.652;2024-01-10T10:15:22;9.63;;;1.80;;
68449;SDS011;67758;39.572;2.652;2024-01-10T10:17:51;7.93;;;1.80;;
68449;SDS011;67758;39.572;2.652;2024-01-10T10:20:22;13.10;;;2.70;;
68449;SDS011;67758;39.572;2.652;2024-01-10T10:25:32;14.27;;;2.10;;
68449;SDS011;67758;39.572;2.652;2024-01-10T10:28:03;8.60;;;1.80;;
68449;SDS011;67758;39.572;2.652;2024-01-10T10:30:30;9.63;;;1.30;;
68449;SDS011;67758;39.572;2.652;2024-01-10T10:32:57;9.60;;;1.43;;
68449;SDS011;67758;39.572;2.652;2024-01-10T10:35:22;12.50;;;2.00;;
68449;SDS011;67758;39.572;2.652;2024-01-10T10:37:48;7.53;;;1.87;;
68449;SDS011;67758;39.572;2.652;2024-01-10T10:40:16;10.52;;;2.45;;
68449;SDS011;67758;39.572;2.652;2024-01-10T10:42:46;12.18;;;2.55;;
68449;SDS011;67758;39.572;2.652;2024-01-10T10:45:17;16.35;;;3.20;;
68449;SDS011;67758;39.572;2.652;2024-01-10T10:47:45;12.88;;;3.25;;
68449;SDS011;67758;39.572;2.652;2024-01-10T10:50:23;11.05;;;3.67;;
68449;SDS011;67758;39.572;2.652;2024-01-10T10:52:51;12.20;;;4.30;;
68449;SDS011;67758;39.572;2.652;2024-01-10T10:55:20;12.65;;;3.90;;
68449;SDS011;67758;39.572;2.652;2024-01-10T10:57:47;10.85;;;3.90;;
68449;SDS011;67758;39.572;2.652;2024-01-10T11:00:14;13.98;;;4.13;;
68449;SDS011;67758;39.572;2.652;2024-01-10T11:02:44;12.40;;;4.10;;
68449;SDS011;67758;39.572;2.652;2024-01-10T11:05:10;11.30;;;4.10;;
68449;SDS011;67758;39.572;2.652;2024-01-10T11:07:40;11.80;;;4.10;;
68449;SDS011;67758;39.572;2.652;2024-01-10T11:10:12;12.68;;;3.00;;
68449;SDS011;67758;39.572;2.652;2024-01-10T11:12:55;20.55;;;3.50;;
68449;SDS011;67758;39.572;2.652;2024-01-10T11:18:43;11.43;;;3.22;;
68449;SDS011;67758;39.572;2.652;2024-01-10T11:24:21;9.00;;;2.30;;
68449;SDS011;67758;39.572;2.652;2024-01-10T11:26:48;12.73;;;2.05;;
68449;SDS011;67758;39.572;2.652;2024-01-10T11:29:14;13.55;;;3.03;;
68449;SDS011;67758;39.572;2.652;2024-01-10T11:31:40;8.15;;;2.15;;
68449;SDS011;67758;39.572;2.652;2024-01-10T11:34:06;9.37;;;2.97;;
68449;SDS011;67758;39.572;2.652;2024-01-10T11:36:33;8.48;;;2.65;;
68449;SDS011;67758;39.572;2.652;2024-01-10T11:38:59;10.77;;;2.20;;
68449;SDS011;67758;39.572;2.652;2024-01-10T11:41:32;10.75;;;2.40;;
68449;SDS011;67758;39.572;2.652;2024-01-10T11:46:46;8.65;;;2.20;;
68449;SDS011;67758;39.572;2.652;2024-01-10T11:49:19;16.90;;;3.60;;
68449;SDS011;67758;39.572;2.652;2024-01-10T11:51:46;8.23;;;2.57;;
68449;SDS011;67758;39.572;2.652;2024-01-10T11:57:14;7.68;;;1.85;;
68449;SDS011;67758;39.572;2.652;2024-01-10T12:00:00;6.25;;;1.42;;
68449;SDS011;67758;39.572;2.652;2024-01-10T12:02:27;7.90;;;1.35;;
68449;SDS011;67758;39.572;2.652;2024-01-10T12:04:54;7.37;;;1.50;;
68449;SDS011;67758;39.572;2.652;2024-01-10T12:07:20;6.72;;;1.35;;
68449;SDS011;67758;39.572;2.652;2024-01-10T12:09:46;7.05;;;1.48;;
68449;SDS011;67758;39.572;2.652;2024-01-10T12:12:13;8.15;;;1.40;;
68449;SDS011;67758;39.572;2.652;2024-01-10T12:14:39;8.82;;;1.13;;
68449;SDS011;67758;39.572;2.652;2024-01-10T12:17:06;8.40;;;2.13;;
68449;SDS011;67758;39.572;2.652;2024-01-10T12:19:33;5.53;;;1.38;;
68449;SDS011;67758;39.572;2.652;2024-01-10T12:22:00;6.22;;;1.45;;
68449;SDS011;67758;39.572;2.652;2024-01-10T12:24:29;9.97;;;1.23;;
68449;SDS011;67758;39.572;2.652;2024-01-10T12:26:55;8.48;;;1.50;;
68449;SDS011;67758;39.572;2.652;2024-01-10T12:29:21;8.85;;;2.67;;
68449;SDS011;67758;39.572;2.652;2024-01-10T12:31:48;4.43;;;0.82;;
68449;SDS011;67758;39.572;2.652;2024-01-10T12:34:14;10.27;;;1.65;;
68449;SDS011;67758;39.572;2.652;2024-01-10T12:36:40;6.65;;;1.67;;
68449;SDS011;67758;39.572;2.652;2024-01-10T12:39:07;6.03;;;1.48;;
68449;SDS011;67758;39.572;2.652;2024-01-10T12:41:33;11.23;;;2.53;;
68449;SDS011;67758;39.572;2.652;2024-01-10T12:44:02;7.88;;;2.15;;
68449;SDS011;67758;39.572;2.652;2024-01-10T12:46:29;5.65;;;0.90;;
68449;SDS011;67758;39.572;2.652;2024-01-10T12:49:02;7.10;;;2.00;;
68449;SDS011;67758;39.572;2.652;2024-01-10T12:51:33;13.85;;;4.30;;
68449;SDS011;67758;39.572;2.652;2024-01-10T12:54:01;8.68;;;1.80;;
68449;SDS011;67758;39.572;2.652;2024-01-10T12:56:29;6.35;;;1.23;;
68449;SDS011;67758;39.572;2.652;2024-01-10T12:58:55;7.53;;;1.38;;
68449;SDS011;67758;39.572;2.652;2024-01-10T13:01:22;5.32;;;1.25;;
68449;SDS011;67758;39.572;2.652;2024-01-10T13:03:49;10.65;;;2.72;;
68449;SDS011;67758;39.572;2.652;2024-01-10T13:06:15;6.93;;;0.80;;
68449;SDS011;67758;39.572;2.652;2024-01-10T13:08:42;5.95;;;0.80;;
68449;SDS011;67758;39.572;2.652;2024-01-10T13:11:08;5.25;;;0.73;;
68449;SDS011;67758;39.572;2.652;2024-01-10T13:13:37;5.30;;;0.80;;
68449;SDS011;67758;39.572;2.652;2024-01-10T13:16:06;5.05;;;0.90;;
68449;SDS011;67758;39.572;2.652;2024-01-10T13:18:31;12.05;;;1.60;;
68449;SDS011;67758;39.572;2.652;2024-01-10T13:20:57;10.03;;;1.23;;
68449;SDS011;67758;39.572;2.652;2024-01-10T13:23:23;10.38;;;0.93;;
68449;SDS011;67758;39.572;2.652;2024-01-10T13:25:52;12.07;;;1.55;;
68449;SDS011;67758;39.572;2.652;2024-01-10T13:28:18;7.88;;;1.38;;
68449;SDS011;67758;39.572;2.652;2024-01-10T13:30:44;8.03;;;1.20;;
68449;SDS011;67758;39.572;2.652;2024-01-10T13:33:10;5.88;;;1.10;;
68449;SDS011;67758;39.572;2.652;2024-01-10T13:35:36;7.83;;;1.30;;
68449;SDS011;67758;39.572;2.652;2024-01-10T13:38:02;6.97;;;1.10;;
68449;SDS011;67758;39.572;2.652;2024-01-10T13:40:28;14.55;;;2.25;;
68449;SDS011;67758;39.572;2.652;2024-01-10T13:42:53;4.10;;;0.90;;
68449;SDS011;67758;39.572;2.652;2024-01-10T13:45:19;7.22;;;1.30;;
68449;SDS011;67758;39.572;2.652;2024-01-10T13:47:45;6.55;;;0.85;;
68449;SDS011;67758;39.572;2.652;2024-01-10T13:50:12;7.30;;;1.03;;
68449;SDS011;67758;39.572;2.652;2024-01-10T13:52:38;9.18;;;1.25;;
68449;SDS011;67758;39.572;2.652;2024-01-10T13:55:04;8.68;;;1.00;;
68449;SDS011;67758;39.572;2.652;2024-01-10T13:57:30;7.03;;;0.80;;
68449;SDS011;67758;39.572;2.652;2024-01-10T13:59:57;11.38;;;1.02;;
68449;SDS011;67758;39.572;2.652;2024-01-10T14:02:23;9.43;;;1.50;;
68449;SDS011;67758;39.572;2.652;2024-01-10T14:04:49;6.35;;;1.30;;
68449;SDS011;67758;39.572;2.652;2024-01-10T14:07:15;6.95;;;1.00;;
68449;SDS011;67758;39.572;2.652;2024-01-10T14:09:41;14.77;;;1.40;;
68449;SDS011;67758;39.572;2.652;2024-01-10T14:12:06;13.85;;;1.40;;
68449;SDS011;67758;39.572;2.652;2024-01-10T14:14:32;9.00;;;1.10;;
68449;SDS011;67758;39.572;2.652;2024-01-10T14:16:58;5.80;;;0.80;;
68449;SDS011;67758;39.572;2.652;2024-01-10T14:19:23;12.50;;;0.88;;
68449;SDS011;67758;39.572;2.652;2024-01-10T14:21:49;9.00;;;1.10;;
68449;SDS011;67758;39.572;2.652;2024-01-10T14:24:15;9.23;;;0.93;;
68449;SDS011;67758;39.572;2.652;2024-01-10T14:26:41;7.10;;;1.13;;
68449;SDS011;67758;39.572;2.652;2024-01-10T14:29:06;7.72;;;0.90;;
68449;SDS011;67758;39.572;2.652;2024-01-10T14:31:32;5.60;;;1.00;;
68449;SDS011;67758;39.572;2.652;2024-01-10T14:33:58;4.68;;;0.50;;
68449;SDS011;67758;39.572;2.652;2024-01-10T14:36:23;7.07;;;1.00;;
68449;SDS011;67758;39.572;2.652;2024-01-10T14:38:49;12.13;;;2.35;;
68449;SDS011;67758;39.572;2.652;2024-01-10T14:41:16;5.43;;;0.70;;
68449;SDS011;67758;39.572;2.652;2024-01-10T14:43:41;8.57;;;1.00;;
68449;SDS011;67758;39.572;2.652;2024-01-10T14:46:07;8.90;;;0.70;;
68449;SDS011;67758;39.572;2.652;2024-01-10T14:48:32;8.60;;;0.90;;
68449;SDS011;67758;39.572;2.652;2024-01-10T14:50:58;4.80;;;0.70;;
68449;SDS011;67758;39.572;2.652;2024-01-10T14:53:27;4.75;;;0.45;;
68449;SDS011;67758;39.572;2.652;2024-01-10T14:55:53;3.40;;;0.30;;
68449;SDS011;67758;39.572;2.652;2024-01-10T14:58:19;3.57;;;0.30;;
68449;SDS011;67758;39.572;2.652;2024-01-10T15:00:45;5.80;;;0.50;;